Time;durP1;ratioP1;P1;durP2;ratioP2;P2;SDS_P1;SDS_P2;PMS_P1;PMS_P2;Temp;Humidity;BMP_temperature;BMP_pressure;BME280_temperature;BME280_humidity;BME280_pressure;Samples;Min_cycle;Max_cycle;Signal;HPM_P1;HPM_P2
2023/10/22 00:07:14;;;;;;;9.13;6.40;;;;;;;15.78;100.00;100193.78;4975467;28;20038;-75
2023/10/22 00:09:40;;;;;;;7.88;7.25;;;;;;;15.18;100.00;100070.97;4973622;28;20039;-75
2023/10/22 00:12:06;;;;;;;6.18;4.95;;;;;;;15.15;100.00;100058.69;4972817;28;20376;-74
2023/10/22 00:14:31;;;;;;;20.60;9.48;;;;;;;15.63;100.00;100105.06;4975530;28;20121;-75
2023/10/22 00:27:02;;;;;;;12.05;6.22;;;;;;;15.46;100.00;100153.09;4975853;28;20076;-75
2023/10/22 00:29:27;;;;;;;6.13;4.10;;;;;;;15.25;100.00;100075.19;4973281;28;20055;-74
2023/10/22 00:31:54;;;;;;;9.65;7.13;;;;;;;16.04;100.00;100156.94;4974724;28;20090;-74
2023/10/22 00:37:41;;;;;;;8.52;6.30;;;;;;;15.45;100.00;100064.09;4975005;28;20121;-74
2023/10/22 00:43:28;;;;;;;7.63;4.50;;;;;;;15.70;100.00;100117.25;4974903;28;20045;-74
2023/10/22 00:49:17;;;;;;;6.43;4.85;;;;;;;15.86;100.00;100157.44;4971393;28;20125;-74
2023/10/22 00:51:44;;;;;;;22.25;6.63;;;;;;;15.35;100.00;100060.81;4970630;28;20045;-74
2023/10/22 00:54:10;;;;;;;7.80;5.00;;;;;;;16.08;100.00;100194.78;4972864;28;20055;-73
2023/10/22 00:56:38;;;;;;;7.85;4.43;;;;;;;15.46;100.00;100067.63;4974789;28;20101;-73
2023/10/22 00:59:04;;;;;;;5.85;5.25;;;;;;;15.63;100.00;100055.69;4971034;28;20047;-74
2023/10/22 01:01:30;;;;;;;2.55;2.30;;;;;;;15.69;100.00;100065.25;4972725;28;20069;-73
2023/10/22 01:03:56;;;;;;;9.48;4.90;;;;;;;16.24;100.00;100185.53;4973464;28;20074;-74
2023/10/22 01:06:25;;;;;;;11.30;5.03;;;;;;;15.93;100.00;100153.72;4971755;28;20062;-75
2023/10/22 01:08:53;;;;;;;6.32;5.65;;;;;;;15.23;100.00;100057.63;4954820;28;20387;-75
2023/10/22 01:11:18;;;;;;;4.75;4.35;;;;;;;14.24;100.00;99888.28;4986347;28;20432;-73
2023/10/22 01:13:54;;;;;;;9.05;5.18;;;;;;;16.16;100.00;100189.31;4956074;28;20078;-73
2023/10/22 01:16:20;;;;;;;4.60;4.20;;;;;;;15.56;100.00;100047.97;4959434;28;20038;-74
2023/10/22 01:18:45;;;;;;;3.80;2.95;;;;;;;15.58;100.00;100059.38;4971266;28;20042;-74
2023/10/22 01:21:11;;;;;;;4.13;3.72;;;;;;;16.20;100.00;100180.34;4971989;28;20061;-74
2023/10/22 01:26:59;;;;;;;3.83;3.53;;;;;;;16.17;100.00;100141.59;4974719;28;20061;-74
2023/10/22 01:29:46;;;;;;;4.88;4.45;;;;;;;16.23;100.00;100169.69;4974779;28;20062;-74
2023/10/22 01:38:55;;;;;;;10.25;6.43;;;;;;;16.27;100.00;100147.50;4974385;28;20379;-73
2023/10/22 01:41:21;;;;;;;4.53;3.83;;;;;;;16.35;100.00;100169.34;4972677;28;20027;-74
2023/10/22 01:43:46;;;;;;;36.25;8.18;;;;;;;16.32;100.00;100173.84;4972163;28;20440;-74
2023/10/22 01:46:12;;;;;;;6.68;3.63;;;;;;;15.83;100.00;100089.59;4973661;28;20078;-74
2023/10/22 01:55:42;;;;;;;8.43;4.93;;;;;;;16.48;100.00;100193.69;4954511;28;20046;-74
2023/10/22 01:58:08;;;;;;;6.20;5.43;;;;;;;16.35;100.00;100219.66;4961549;28;20471;-75
2023/10/22 02:00:33;;;;;;;14.48;4.20;;;;;;;15.56;100.00;100056.75;4972223;28;20077;-75
2023/10/22 02:02:59;;;;;;;13.80;4.72;;;;;;;15.75;100.00;100077.47;4977895;28;20355;-74
2023/10/22 02:05:25;;;;;;;16.15;7.03;;;;;;;15.59;100.00;100074.31;4976799;28;20062;-75
2023/10/22 02:11:12;;;;;;;15.30;7.72;;;;;;;15.68;100.00;100046.75;4977632;28;20085;-75
2023/10/22 02:13:38;;;;;;;3.45;2.78;;;;;;;15.83;100.00;100100.16;4975326;28;20031;-74
2023/10/22 02:16:03;;;;;;;5.05;4.50;;;;;;;16.15;100.00;100174.31;4977470;28;20063;-74
2023/10/22 02:18:29;;;;;;;7.95;4.82;;;;;;;16.45;100.00;100199.09;4975808;28;20046;-74
2023/10/22 02:24:16;;;;;;;3.95;3.55;;;;;;;15.30;100.00;100061.84;4977407;28;20093;-74
2023/10/22 02:26:42;;;;;;;2.35;2.03;;;;;;;16.17;100.00;100183.94;4977156;28;20030;-74
2023/10/22 02:29:08;;;;;;;3.40;3.08;;;;;;;16.26;100.00;100190.78;4976726;28;20399;-74
2023/10/22 02:31:34;;;;;;;8.75;2.85;;;;;;;16.38;100.00;100200.19;4977226;28;20053;-74
2023/10/22 02:37:21;;;;;;;3.45;2.70;;;;;;;16.33;100.00;100210.03;4976998;28;20071;-74
2023/10/22 02:39:46;;;;;;;8.95;7.57;;;;;;;15.95;100.00;100154.53;4974917;28;20410;-74
2023/10/22 02:42:12;;;;;;;6.78;5.15;;;;;;;16.29;100.00;100227.75;4977025;28;20094;-74
2023/10/22 02:44:52;;;;;;;5.65;4.93;;;;;;;16.00;100.00;100200.28;4977018;28;20027;-74
2023/10/22 02:47:26;;;;;;;3.78;2.60;;;;;;;16.11;100.00;100226.47;4975695;28;20046;-74
2023/10/22 02:53:14;;;;;;;7.18;3.20;;;;;;;16.29;100.00;100264.84;4957941;28;20515;-74
2023/10/22 02:55:40;;;;;;;5.05;4.57;;;;;;;16.28;100.00;100278.13;4955528;28;20035;-73
2023/10/22 02:58:06;;;;;;;7.63;6.97;;;;;;;16.10;100.00;100290.91;4957432;28;20050;-73
2023/10/22 03:00:35;;;;;;;4.50;3.42;;;;;;;16.28;100.00;100299.31;4958617;28;20054;-75
2023/10/22 03:06:22;;;;;;;6.97;5.78;;;;;;;15.69;100.00;100192.22;4957292;28;20038;-74
2023/10/22 03:08:48;;;;;;;5.28;3.38;;;;;;;16.15;100.00;100289.00;4963425;28;20094;-75
2023/10/22 03:11:16;;;;;;;3.63;2.97;;;;;;;15.73;100.00;100267.09;4976957;28;20402;-74
2023/10/22 03:13:42;;;;;;;2.30;1.23;;;;;;;15.78;100.00;100267.84;4976230;28;20043;-73
2023/10/22 03:19:29;;;;;;;4.85;4.45;;;;;;;16.07;100.00;100313.94;4968713;28;20430;-75
2023/10/22 03:21:55;;;;;;;5.38;4.72;;;;;;;15.28;100.00;100190.56;5007435;28;20043;-73
2023/10/22 03:24:22;;;;;;;2.05;1.88;;;;;;;15.51;100.00;100213.81;5005226;28;20030;-73
2023/10/22 03:30:40;;;;;;;6.82;5.22;;;;;;;16.06;100.00;100314.84;4976390;28;20037;-73
2023/10/22 03:33:06;;;;;;;6.45;4.05;;;;;;;15.47;100.00;100230.66;4974082;28;20073;-75
2023/10/22 03:35:32;;;;;;;1.63;1.13;;;;;;;15.24;100.00;100194.16;4976203;28;20031;-74
2023/10/22 03:37:58;;;;;;;12.27;6.15;;;;;;;15.45;100.00;100228.03;4976440;28;20043;-74
2023/10/22 03:47:06;;;;;;;4.18;3.78;;;;;;;15.09;100.00;100190.97;4956483;28;20039;-74
2023/10/22 03:49:32;;;;;;;3.75;2.95;;;;;;;14.82;100.00;100179.25;4962354;28;20031;-74
2023/10/22 03:51:57;;;;;;;7.10;4.22;;;;;;;15.23;100.00;100218.88;4974032;28;20067;-74
2023/10/22 03:54:23;;;;;;;3.35;3.00;;;;;;;15.10;100.00;100187.44;4974134;28;20041;-74
2023/10/22 04:00:20;;;;;;;3.47;2.30;;;;;;;15.27;100.00;100215.25;4960461;28;21009;-74
2023/10/22 04:03:41;;;;;;;1.88;1.75;;;;;;;15.81;100.00;100311.00;4974694;28;20033;-75
2023/10/22 04:09:29;;;;;;;7.20;3.95;;;;;;;15.38;100.00;100272.28;4975430;28;20042;-74
2023/10/22 04:11:56;;;;;;;4.82;3.30;;;;;;;15.65;100.00;100298.13;4973389;28;20034;-74
2023/10/22 04:14:21;;;;;;;2.42;2.20;;;;;;;15.21;100.00;100197.75;4972749;28;20031;-75
2023/10/22 04:16:50;;;;;;;5.22;2.88;;;;;;;15.09;100.00;100171.59;4974737;28;20035;-75
2023/10/22 04:20:02;;;;;;;3.72;3.40;;;;;;;15.75;100.00;100283.81;4973506;28;20387;-74
2023/10/22 04:22:43;;;;;;;8.40;4.05;;;;;;;15.28;100.00;100206.41;4973383;28;20043;-75
2023/10/22 04:25:10;;;;;;;4.88;3.20;;;;;;;15.53;100.00;100260.47;4959482;28;20038;-73
2023/10/22 04:27:54;;;;;;;4.03;2.70;;;;;;;15.39;100.00;100283.72;4975001;28;20034;-74
2023/10/22 04:30:20;;;;;;;3.92;3.25;;;;;;;15.43;100.00;100250.13;4959950;28;20035;-73
2023/10/22 04:32:46;;;;;;;4.63;3.95;;;;;;;15.17;100.00;100267.44;4956012;28;20105;-74
2023/10/22 04:35:12;;;;;;;2.53;1.48;;;;;;;14.55;100.00;100133.13;4960390;28;20038;-74
2023/10/22 04:40:59;;;;;;;5.10;3.10;;;;;;;15.14;100.00;100217.28;4973608;28;20041;-75
2023/10/22 04:43:24;;;;;;;2.33;1.90;;;;;;;15.34;100.00;100245.94;4974442;28;20452;-75
2023/10/22 04:45:50;;;;;;;15.68;5.38;;;;;;;14.55;100.00;100139.28;4974879;28;20038;-73
2023/10/22 04:48:16;;;;;;;5.60;3.22;;;;;;;14.82;100.00;100197.72;4972990;28;20410;-74
2023/10/22 04:54:04;;;;;;;6.40;2.55;;;;;;;14.02;100.00;100156.13;4973533;28;20066;-75
2023/10/22 04:59:51;;;;;;;18.77;5.25;;;;;;;14.75;100.00;100198.75;4974622;28;20088;-74
2023/10/22 05:02:17;;;;;;;3.33;2.17;;;;;;;15.23;100.00;100296.38;4971698;28;20421;-75
2023/10/22 05:04:47;;;;;;;25.98;8.40;;;;;;;14.60;100.00;100185.84;4972852;28;20034;-75
2023/10/22 05:07:16;;;;;;;4.07;2.53;;;;;;;15.23;100.00;100277.88;4972573;28;20121;-74
2023/10/22 05:09:42;;;;;;;5.75;4.30;;;;;;;15.17;100.00;100267.44;4974426;28;20053;-73
2023/10/22 05:12:08;;;;;;;5.93;4.90;;;;;;;14.79;100.00;100189.84;4972750;28;20039;-74
2023/10/22 05:14:33;;;;;;;2.00;1.75;;;;;;;15.21;100.00;100263.81;5002492;28;20026;-74
2023/10/22 05:20:21;;;;;;;10.63;3.75;;;;;;;15.44;100.00;100281.84;4971514;28;20426;-74
2023/10/22 05:22:48;;;;;;;4.68;4.25;;;;;;;15.77;100.00;100301.38;4971024;28;20038;-73
2023/10/22 05:25:14;;;;;;;3.95;2.92;;;;;;;15.81;100.00;100292.47;4969300;28;20137;-74
2023/10/22 05:31:01;;;;;;;10.75;3.47;;;;;;;16.02;100.00;100296.41;4974019;28;20085;-73
2023/10/22 05:33:27;;;;;;;11.30;3.55;;;;;;;16.19;100.00;100300.41;4973341;28;20031;-74
2023/10/22 05:35:53;;;;;;;3.55;2.50;;;;;;;16.34;100.00;100313.28;4972014;28;20070;-73
2023/10/22 05:38:18;;;;;;;3.00;2.78;;;;;;;16.36;100.00;100290.25;4972443;28;20106;-74
2023/10/22 05:40:44;;;;;;;8.85;5.85;;;;;;;16.20;100.00;100265.97;4973632;28;20051;-74
2023/10/22 05:43:09;;;;;;;11.60;5.22;;;;;;;15.94;100.00;100202.22;4973975;28;20045;-75
2023/10/22 05:45:35;;;;;;;3.05;2.65;;;;;;;16.57;100.00;100302.06;4973763;28;20041;-73
2023/10/22 05:52:13;;;;;;;3.90;2.78;;;;;;;17.00;100.00;100329.22;4973677;28;20045;-73
2023/10/22 05:54:39;;;;;;;4.75;3.78;;;;;;;16.48;100.00;100217.53;4970053;28;20030;-74
2023/10/22 05:57:04;;;;;;;2.95;2.50;;;;;;;17.25;100.00;100332.91;4973570;28;20470;-75
2023/10/22 05:59:30;;;;;;;2.22;2.03;;;;;;;17.34;100.00;100317.66;4974481;28;20029;-74
2023/10/22 06:05:18;;;;;;;6.28;4.95;;;;;;;17.72;100.00;100324.44;4973798;28;20058;-73
2023/10/22 06:07:45;;;;;;;3.67;3.33;;;;;;;17.82;100.00;100302.06;4970268;28;20039;-74
2023/10/22 06:10:11;;;;;;;6.20;4.53;;;;;;;17.84;100.00;100283.41;4972263;28;20067;-74
2023/10/22 06:15:58;;;;;;;3.55;3.20;;;;;;;17.54;100.00;100211.81;4973507;28;20093;-74
2023/10/22 06:21:46;;;;;;;5.45;2.75;;;;;;;18.19;100.00;100319.47;4973382;28;20394;-73
2023/10/22 06:24:13;;;;;;;3.17;2.80;;;;;;;17.68;100.00;100221.97;4970213;28;20101;-73
2023/10/22 06:26:39;;;;;;;9.85;3.30;;;;;;;18.43;100.00;100340.81;4971884;28;20023;-74
2023/10/22 06:29:04;;;;;;;2.45;2.22;;;;;;;18.44;100.00;100318.63;4973494;28;20495;-74
2023/10/22 06:31:30;;;;;;;4.68;2.78;;;;;;;18.41;100.00;100308.97;4971301;28;20046;-74
2023/10/22 06:33:55;;;;;;;1.70;1.25;;;;;;;18.52;100.00;100308.63;4971400;28;20479;-74
2023/10/22 06:36:22;;;;;;;4.60;4.18;;;;;;;18.61;100.00;100308.25;4971090;28;20069;-74
2023/10/22 06:38:49;;;;;;;3.47;3.17;;;;;;;18.67;100.00;100321.34;4973139;28;20567;-74
2023/10/22 06:42:05;;;;;;;3.88;3.20;;;;;;;18.80;100.00;100323.59;4970450;28;20026;-74
2023/10/22 06:44:30;;;;;;;2.75;2.53;;;;;;;18.50;100.00;100267.94;4972183;28;20050;-74
2023/10/22 06:46:56;;;;;;;3.72;3.38;;;;;;;18.72;100.00;100307.91;4973508;28;20046;-74
2023/10/22 06:49:21;;;;;;;7.85;2.53;;;;;;;18.83;100.00;100328.84;4975012;28;20137;-74
2023/10/22 06:52:28;;;;;;;1.25;1.15;;;;;;;18.93;100.00;100330.22;4972204;28;20368;-74
2023/10/22 06:58:35;;;;;;;11.30;2.72;;;;;;;19.01;100.00;100314.88;4974902;28;20053;-74
2023/10/22 07:01:12;;;;;;;6.07;3.92;;;;;;;18.91;100.00;100269.13;4971505;28;20055;-74
2023/10/22 07:03:40;;;;;;;1.92;1.75;;;;;;;18.72;100.00;100213.06;4976108;28;20042;-74
2023/10/22 07:09:28;;;;;;;3.40;2.95;;;;;;;18.83;100.00;100203.88;4975923;28;20042;-73
2023/10/22 07:11:53;;;;;;;7.22;2.75;;;;;;;19.42;100.00;100311.59;5004516;28;20380;-73
2023/10/22 07:14:20;;;;;;;2.38;2.17;;;;;;;19.43;100.00;100327.47;4976496;28;20062;-74
2023/10/22 07:16:45;;;;;;;2.05;1.73;;;;;;;19.18;100.00;100283.19;4975405;28;20055;-74
2023/10/22 07:22:33;;;;;;;2.78;2.47;;;;;;;19.70;96.50;100332.72;4976495;28;20041;-73
2023/10/22 07:24:59;;;;;;;3.40;2.10;;;;;;;19.61;93.83;100300.16;4975675;28;20454;-75
2023/10/22 07:27:24;;;;;;;2.63;2.42;;;;;;;19.81;93.74;100341.16;4975518;28;20038;-74
2023/10/22 07:29:50;;;;;;;1.98;1.77;;;;;;;19.80;95.40;100345.59;4964206;28;20031;-75
2023/10/22 07:35:38;;;;;;;3.25;2.42;;;;;;;19.53;90.57;100259.69;4957663;28;20038;-74
2023/10/22 07:38:04;;;;;;;3.90;3.10;;;;;;;19.83;91.22;100296.72;4973655;28;20046;-74
2023/10/22 07:40:31;;;;;;;10.02;2.70;;;;;;;19.34;92.62;100208.13;4973755;28;20066;-74
2023/10/22 07:42:56;;;;;;;2.20;1.65;;;;;;;19.96;91.26;100276.63;4975399;28;20438;-74
2023/10/22 07:48:45;;;;;;;3.88;2.65;;;;;;;20.09;99.75;100294.75;4975953;28;20042;-73
2023/10/22 07:51:21;;;;;;;1.50;1.27;;;;;;;20.11;99.81;100274.25;4974815;28;20031;-73
2023/10/22 07:53:48;;;;;;;2.40;2.00;;;;;;;20.24;95.60;100287.00;4972869;28;20129;-76
2023/10/22 07:56:17;;;;;;;2.33;1.95;;;;;;;20.34;93.97;100299.94;4962208;28;20375;-74
2023/10/22 07:58:42;;;;;;;5.63;2.70;;;;;;;20.26;89.71;100281.59;4960230;28;20084;-74
2023/10/22 08:01:08;;;;;;;4.40;3.35;;;;;;;19.88;89.78;100212.16;4971843;28;20059;-74
2023/10/22 08:06:56;;;;;;;3.30;3.00;;;;;;;20.33;88.25;100282.22;4974932;28;20084;-74
2023/10/22 08:09:22;;;;;;;4.63;3.63;;;;;;;19.66;84.98;100140.25;4974159;28;20041;-76
2023/10/22 08:11:47;;;;;;;6.32;2.28;;;;;;;20.24;87.56;100212.38;4996612;28;20158;-75
2023/10/22 08:14:13;;;;;;;0.82;0.82;;;;;;;20.68;85.08;100238.06;5005984;28;20031;-75
2023/10/22 08:20:00;;;;;;;2.30;1.90;;;;;;;21.31;77.27;100307.25;4974824;28;20061;-75
2023/10/22 08:25:51;;;;;;;13.57;3.50;;;;;;;21.34;81.27;100279.53;4974522;28;20448;-74
2023/10/22 08:35:01;;;;;;;1.65;1.38;;;;;;;21.13;79.36;100207.53;4972474;28;20134;-75
2023/10/22 08:37:29;;;;;;;4.03;1.95;;;;;;;21.66;82.04;100292.25;4973445;28;20038;-75
2023/10/22 08:39:56;;;;;;;1.23;0.63;;;;;;;21.63;78.92;100267.50;4974071;28;20041;-74
2023/10/22 08:42:37;;;;;;;4.88;2.60;;;;;;;21.69;81.30;100276.06;4971138;28;20035;-74
2023/10/22 08:45:04;;;;;;;0.57;0.50;;;;;;;21.87;81.82;100289.50;4979909;28;20053;-75
2023/10/22 08:47:30;;;;;;;1.38;1.27;;;;;;;21.95;79.25;100295.31;4974319;28;20023;-75
2023/10/22 08:53:19;;;;;;;4.18;2.85;;;;;;;22.18;77.45;100304.00;4974738;28;20062;-74
2023/10/22 08:55:47;;;;;;;2.50;2.30;;;;;;;22.27;78.59;100301.78;4972238;28;20069;-74
2023/10/22 08:58:19;;;;;;;2.45;1.73;;;;;;;22.41;73.50;100292.19;4976268;28;20041;-75
2023/10/22 09:04:32;;;;;;;2.45;1.33;;;;;;;22.22;74.33;100242.34;4963358;28;20194;-74
2023/10/22 09:06:58;;;;;;;2.10;1.90;;;;;;;22.76;72.60;100304.59;4971984;28;20050;-73
2023/10/22 09:09:43;;;;;;;1.35;1.13;;;;;;;22.97;69.73;100302.59;4972305;28;20533;-74
2023/10/22 09:12:13;;;;;;;1.55;1.45;;;;;;;22.71;70.10;100266.53;4973447;28;20043;-74
2023/10/22 09:14:43;;;;;;;6.18;1.00;;;;;;;22.84;71.66;100271.22;4956783;28;20054;-74
2023/10/22 09:24:10;;;;;;;0.40;0.40;;;;;;;22.71;69.98;100199.66;4970485;28;20043;-74
2023/10/22 09:27:13;;;;;;;0.95;0.73;;;;;;;23.38;68.88;100283.44;4960802;28;20476;-75
2023/10/22 09:39:44;;;;;;;2.55;2.35;;;;;;;23.24;67.10;100176.25;4973355;28;20474;-75
2023/10/22 09:42:14;;;;;;;0.90;0.90;;;;;;;23.77;66.80;100257.22;4969925;28;20050;-74
2023/10/22 09:44:43;;;;;;;3.03;2.15;;;;;;;23.76;67.30;100250.13;4973240;28;20055;-74
2023/10/22 09:47:09;;;;;;;3.35;2.10;;;;;;;23.35;65.55;100152.41;4969997;28;20114;-74
2023/10/22 09:52:58;;;;;;;0.30;0.30;;;;;;;23.74;65.26;100158.25;4995537;28;20049;-74
2023/10/22 10:02:58;;;;;;;2.10;1.65;;;;;;;24.43;64.07;100237.25;4968523;28;20041;-75
2023/10/22 10:05:24;;;;;;;1.33;1.23;;;;;;;24.49;63.39;100231.56;4950194;29;20526;-74
2023/10/22 10:07:51;;;;;;;1.75;1.63;;;;;;;24.39;63.68;100201.69;4953821;28;20062;-74
2023/10/22 10:10:16;;;;;;;3.60;1.90;;;;;;;24.13;61.53;100128.19;4953592;28;20122;-76
2023/10/22 10:12:42;;;;;;;1.55;0.95;;;;;;;24.51;62.04;100184.00;4951993;28;20063;-74
2023/10/22 10:15:28;;;;;;;4.05;3.70;;;;;;;24.17;63.45;100131.56;4952035;28;20063;-75
2023/10/22 10:25:18;;;;;;;2.85;1.10;;;;;;;24.95;61.40;100206.34;4957450;28;20059;-74
2023/10/22 10:27:51;;;;;;;7.82;1.90;;;;;;;24.76;57.32;100134.19;4949847;28;20178;-74
2023/10/22 10:34:32;;;;;;;1.35;1.25;;;;;;;25.34;55.19;100202.97;4957456;28;20050;-75
2023/10/22 10:37:26;;;;;;;1.67;1.45;;;;;;;25.48;54.99;100202.06;4956644;28;20400;-75
2023/10/22 10:39:54;;;;;;;;;;;;;;;25.46;54.08;100199.47;4957820;28;20460;-74
2023/10/22 10:42:29;;;;;;;0.43;0.35;;;;;;;25.53;54.33;100220.59;4956831;28;20263;-75
2023/10/22 10:45:08;;;;;;;1.33;0.88;;;;;;;25.46;54.03;100186.03;4956879;28;20035;-74
2023/10/22 10:54:24;;;;;;;3.03;1.20;;;;;;;25.34;53.23;100114.34;4956675;28;20210;-74
2023/10/22 11:00:57;;;;;;;1.20;1.10;;;;;;;25.98;52.75;100186.25;4956981;28;20083;-75
2023/10/22 11:03:23;;;;;;;0.30;0.30;;;;;;;25.90;52.59;100181.41;4952172;28;20069;-74
2023/10/22 11:05:48;;;;;;;5.55;3.15;;;;;;;25.45;51.43;100114.47;4951442;28;20356;-75
2023/10/22 11:08:20;;;;;;;1.75;1.27;;;;;;;25.87;51.55;100179.78;4956898;28;20023;-75
2023/10/22 11:14:12;;;;;;;2.00;1.33;;;;;;;25.84;51.25;100169.19;4956517;28;20042;-75
2023/10/22 11:16:51;;;;;;;1.83;1.70;;;;;;;25.96;50.75;100188.19;4953070;28;20047;-75
2023/10/22 11:19:34;;;;;;;0.63;0.50;;;;;;;26.02;50.75;100191.31;4955055;28;20043;-74
2023/10/22 11:25:22;;;;;;;2.70;1.52;;;;;;;25.49;50.97;100113.28;4956243;28;20042;-74
2023/10/22 11:27:47;;;;;;;0.82;0.82;;;;;;;25.57;50.44;100104.72;4956143;28;20043;-74
2023/10/22 11:30:36;;;;;;;1.05;0.68;;;;;;;25.66;50.32;100100.53;4956485;28;20367;-75
2023/10/22 11:36:23;;;;;;;0.75;0.75;;;;;;;25.82;49.63;100171.09;4956129;28;20042;-74
2023/10/22 11:38:50;;;;;;;0.40;0.40;;;;;;;25.87;50.44;100181.59;4956067;28;20023;-74
2023/10/22 11:41:17;;;;;;;1.73;1.35;;;;;;;25.94;50.31;100179.34;4956131;28;20027;-75
2023/10/22 11:50:34;;;;;;;1.02;0.68;;;;;;;25.84;50.63;100179.94;4956846;28;20046;-75
2023/10/22 11:53:00;;;;;;;1.33;1.23;;;;;;;25.75;52.51;100159.06;4955797;28;20138;-75
2023/10/22 11:55:25;;;;;;;2.60;1.38;;;;;;;25.84;51.40;100179.09;4952713;28;20131;-75
2023/10/22 12:05:45;;;;;;;0.60;0.60;;;;;;;26.06;49.83;100179.38;4940638;28;20058;-74
2023/10/22 12:15:53;;;;;;;1.23;1.13;;;;;;;26.01;50.86;100160.03;4974738;28;20122;-75
2023/10/22 12:18:18;;;;;;;4.28;1.95;;;;;;;25.06;50.50;99994.44;4974338;28;20130;-75
2023/10/22 12:20:43;;;;;;;0.50;0.50;;;;;;;26.14;51.33;100188.75;4975037;28;20023;-75
2023/10/22 12:23:11;;;;;;;1.38;1.27;;;;;;;26.06;51.04;100184.78;4974310;28;20134;-75
2023/10/22 12:28:58;;;;;;;2.17;1.45;;;;;;;26.06;50.15;100178.53;4972956;28;20125;-74
2023/10/22 12:31:24;;;;;;;1.88;1.77;;;;;;;26.15;50.39;100188.63;4964685;28;20039;-75
2023/10/22 12:33:49;;;;;;;3.72;1.48;;;;;;;26.16;49.69;100173.38;4966383;28;20066;-74
2023/10/22 12:36:15;;;;;;;0.82;0.82;;;;;;;25.66;49.73;100101.44;4974261;28;20027;-74
2023/10/22 12:39:23;;;;;;;0.77;0.75;;;;;;;26.27;50.06;100185.13;4975058;28;20382;-75
2023/10/22 12:45:11;;;;;;;1.73;1.58;;;;;;;25.37;50.76;100046.09;4967065;28;20084;-74
2023/10/22 12:47:37;;;;;;;0.70;0.70;;;;;;;25.99;50.76;100148.50;4973040;28;20042;-76
2023/10/22 12:50:05;;;;;;;0.82;0.75;;;;;;;26.33;49.92;100178.44;4969795;28;20038;-74
2023/10/22 12:55:54;;;;;;;2.78;0.95;;;;;;;25.87;49.82;100099.13;4974122;28;20070;-79
2023/10/22 12:58:24;;;;;;;0.88;0.60;;;;;;;26.29;49.37;100176.94;4989954;28;20053;-81
2023/10/22 13:00:53;;;;;;;1.70;1.35;;;;;;;26.33;48.55;100176.59;4978558;28;20031;-80
2023/10/22 13:06:40;;;;;;;0.50;0.50;;;;;;;26.29;48.84;100183.19;4972726;28;20093;-79
2023/10/22 13:09:08;;;;;;;3.90;2.38;;;;;;;26.21;48.83;100171.22;4973523;28;20042;-79
2023/10/22 13:11:34;;;;;;;1.10;1.05;;;;;;;26.24;48.42;100174.56;4973592;28;20073;-80
2023/10/22 13:14:01;;;;;;;29.95;2.33;;;;;;;26.02;48.88;100139.38;4974072;28;20043;-78
2023/10/22 13:16:26;;;;;;;1.50;1.30;;;;;;;26.17;48.97;100178.63;4972542;28;20046;-79
2023/10/22 13:18:53;;;;;;;2.47;1.88;;;;;;;26.03;48.80;100167.97;4972986;28;20131;-79
2023/10/22 13:21:18;;;;;;;2.75;1.90;;;;;;;26.15;49.74;100190.47;4972160;28;20383;-75
2023/10/22 13:27:05;;;;;;;5.57;2.85;;;;;;;25.63;49.24;100103.44;4973515;28;20050;-73
2023/10/22 13:29:31;;;;;;;1.25;1.15;;;;;;;25.51;49.71;100091.69;4965121;28;20411;-74
2023/10/22 13:31:58;;;;;;;1.70;1.60;;;;;;;25.56;49.80;100091.38;4963848;28;20027;-74
2023/10/22 13:34:24;;;;;;;1.25;1.15;;;;;;;25.95;49.41;100163.13;4963834;28;20057;-75
2023/10/22 13:36:49;;;;;;;1.85;1.27;;;;;;;25.97;50.32;100165.72;4964584;28;20399;-75
2023/10/22 13:39:15;;;;;;;0.50;0.50;;;;;;;25.81;50.74;100149.72;4959279;28;20049;-72
2023/10/22 13:41:43;;;;;;;1.95;1.40;;;;;;;25.89;50.81;100177.84;4970896;28;20105;-74
2023/10/22 13:44:10;;;;;;;0.22;0.22;;;;;;;25.82;50.38;100181.00;4966431;28;20031;-74
2023/10/22 13:46:36;;;;;;;1.55;1.45;;;;;;;25.79;50.09;100165.09;4967738;28;20130;-76
2023/10/22 13:49:01;;;;;;;1.02;1.02;;;;;;;25.24;50.58;100084.53;4969504;28;20486;-74
2023/10/22 13:51:27;;;;;;;0.20;0.20;;;;;;;25.03;50.84;100065.31;4961735;28;20057;-75
2023/10/22 13:57:33;;;;;;;0.40;0.40;;;;;;;25.54;50.05;100153.28;4974588;28;20113;-74
2023/10/22 14:03:19;;;;;;;0.68;0.68;;;;;;;25.60;50.88;100185.13;4977460;28;20108;-74
2023/10/22 14:09:33;;;;;;;1.27;0.85;;;;;;;25.02;51.10;100092.25;4966603;28;20058;-75
2023/10/22 14:11:59;;;;;;;0.82;0.80;;;;;;;25.06;51.07;100104.50;4974491;28;20125;-74
2023/10/22 14:14:24;;;;;;;7.13;4.13;;;;;;;25.42;51.26;100165.72;4974321;28;20462;-74
2023/10/22 14:16:50;;;;;;;15.32;2.40;;;;;;;24.40;51.27;100006.78;4970711;28;20074;-74
2023/10/22 14:19:15;;;;;;;5.65;3.00;;;;;;;25.31;51.34;100156.63;4971802;28;20035;-73
2023/10/22 14:28:24;;;;;;;3.05;0.77;;;;;;;25.16;51.77;100167.38;4976687;28;20127;-75
2023/10/22 14:34:13;;;;;;;2.47;0.98;;;;;;;25.06;52.32;100183.22;4976694;28;20132;-75
2023/10/22 14:36:39;;;;;;;2.38;2.20;;;;;;;24.62;52.61;100102.84;4976510;28;20026;-75
2023/10/22 14:39:07;;;;;;;5.57;2.08;;;;;;;24.08;52.45;100022.22;4976255;28;20034;-76
2023/10/22 14:44:54;;;;;;;0.82;0.82;;;;;;;24.83;53.86;100181.16;4977026;28;20422;-76
2023/10/22 14:54:03;;;;;;;14.13;2.70;;;;;;;24.00;55.59;100085.19;4974210;28;20094;-74
2023/10/22 14:56:28;;;;;;;2.28;1.98;;;;;;;24.34;56.47;100168.91;4973052;28;20462;-74
2023/10/22 14:58:54;;;;;;;3.25;1.88;;;;;;;24.13;56.69;100138.91;4975848;28;20031;-76
2023/10/22 15:01:19;;;;;;;1.55;0.80;;;;;;;23.80;56.98;100096.25;4976306;28;20474;-76
2023/10/22 15:03:51;;;;;;;0.57;0.57;;;;;;;23.82;58.95;100113.13;4967496;28;20039;-75
2023/10/22 15:06:16;;;;;;;1.42;1.35;;;;;;;23.24;61.21;100038.84;4974167;28;20189;-75
2023/10/22 15:08:41;;;;;;;1.92;1.83;;;;;;;24.04;64.56;100201.13;4971647;28;20043;-75
2023/10/22 15:11:08;;;;;;;4.57;1.52;;;;;;;23.53;65.26;100126.38;4968962;28;20038;-75
2023/10/22 15:13:58;;;;;;;0.20;0.20;;;;;;;23.84;64.58;100204.16;4969530;28;20035;-75
2023/10/22 15:16:24;;;;;;;6.63;2.58;;;;;;;23.66;66.23;100190.81;4972302;28;20034;-74
2023/10/22 15:18:49;;;;;;;2.92;0.85;;;;;;;23.08;67.73;100112.00;4973562;28;20225;-75
2023/10/22 15:21:15;;;;;;;1.50;1.35;;;;;;;23.52;68.97;100201.47;4957096;28;20544;-74
2023/10/22 15:23:40;;;;;;;3.50;2.70;;;;;;;23.47;68.73;100211.59;4956392;28;20023;-74
2023/10/22 15:26:09;;;;;;;0.40;0.40;;;;;;;23.38;70.13;100211.13;4972850;28;20039;-76
2023/10/22 15:28:34;;;;;;;1.30;1.17;;;;;;;23.16;74.89;100192.75;4970793;28;20379;-75
2023/10/22 15:31:06;;;;;;;1.75;1.65;;;;;;;22.69;76.14;100123.09;4969389;28;20050;-75
2023/10/22 15:36:53;;;;;;;1.80;1.70;;;;;;;22.57;78.26;100142.47;4971790;28;20054;-75
2023/10/22 15:39:19;;;;;;;2.38;2.17;;;;;;;22.80;83.02;100192.91;4986505;28;20207;-75
2023/10/22 15:41:44;;;;;;;2.67;1.63;;;;;;;22.17;85.19;100096.47;4966319;28;20494;-74
2023/10/22 15:44:10;;;;;;;2.55;2.35;;;;;;;22.77;86.08;100218.03;4971363;28;20046;-74
2023/10/22 15:46:35;;;;;;;2.75;1.05;;;;;;;22.55;87.67;100202.28;4972664;28;20050;-75
2023/10/22 15:49:01;;;;;;;8.30;2.90;;;;;;;22.57;89.00;100217.38;4968016;28;20045;-75
2023/10/22 15:51:29;;;;;;;2.03;1.38;;;;;;;21.86;91.64;100130.13;4973593;28;20042;-75
2023/10/22 15:54:22;;;;;;;2.63;1.85;;;;;;;22.39;95.39;100222.75;4972071;28;20041;-75
2023/10/22 15:56:47;;;;;;;1.88;1.70;;;;;;;22.22;96.99;100204.91;4971089;28;20081;-76
2023/10/22 15:59:13;;;;;;;3.22;2.92;;;;;;;21.71;99.39;100135.31;4973898;28;20026;-74
2023/10/22 16:01:38;;;;;;;2.30;1.75;;;;;;;21.44;100.00;100116.19;4970361;28;20477;-76
2023/10/22 16:04:07;;;;;;;1.65;0.73;;;;;;;21.99;100.00;100237.25;4970897;28;20051;-75
2023/10/22 16:06:32;;;;;;;1.85;1.00;;;;;;;21.81;100.00;100239.88;4969792;28;20064;-76
2023/10/22 16:08:58;;;;;;;1.67;1.55;;;;;;;21.21;100.00;100140.44;4969215;28;20491;-74
2023/10/22 16:11:24;;;;;;;1.13;1.00;;;;;;;21.47;100.00;100203.31;4969344;28;20124;-76
2023/10/22 16:13:50;;;;;;;1.92;1.75;;;;;;;20.50;100.00;100086.91;4974515;28;20043;-76